Ashville, Canada
Current Conditions -  °F | °C
As of 12:00 PM on Thursday 18 Dec 2014 (Local Time) from CYDN Reporting Station
Clear Clear  
Wind Chill:   Ceiling: Unl
Heat Index:   Visibility: 9mi
Dew Point:   Wind: 2mph
Humidity: 85%   Direction: 150°SSE
Pressure: 30.08"   Gusts: NA
Location:  51.18°N, 100.3°W
Report Text: CYDN 181800Z AUTO 15002KT 9SM CLR M13/M15 A3008 RMK SLP215
Loading
Personal Weather Stations






























Interactive Weather Map New forecast layout! Learn more

10-Day Weather Forecast

Advertisements
Track Severe Weather on mobile